createdAt,value
2022-08-07T00:00:39.915Z,57.75
2022-08-07T00:03:08.795Z,57.42
2022-08-07T00:05:37.328Z,57.43
2022-08-07T00:08:07.819Z,58.07
2022-08-07T00:10:47.925Z,58.01
2022-08-07T00:13:23.764Z,58.45
2022-08-07T00:15:54.894Z,58.31
2022-08-07T00:18:27.609Z,58.71
2022-08-07T00:20:57.604Z,58.85
2022-08-07T00:23:30.729Z,58.50
2022-08-07T00:26:12.883Z,58.85
2022-08-07T00:28:46.036Z,58.65
2022-08-07T00:31:37.672Z,58.87
2022-08-07T00:34:09.585Z,58.94
2022-08-07T00:36:43.065Z,58.83
2022-08-07T00:39:16.913Z,59.59
2022-08-07T00:41:53.541Z,59.44
2022-08-07T00:44:29.494Z,59.51
2022-08-07T00:46:57.397Z,59.98
2022-08-07T00:50:19.309Z,59.78
2022-08-07T00:52:20.154Z,59.29
2022-08-07T00:54:53.833Z,60.46
2022-08-07T00:57:25.921Z,61.38
2022-08-07T00:59:55.051Z,61.68
2022-08-07T01:02:28.326Z,60.76
2022-08-07T01:04:58.580Z,61.25
2022-08-07T01:07:29.392Z,60.88
2022-08-07T01:10:06.144Z,60.88
2022-08-07T01:12:44.771Z,61.25
2022-08-07T01:15:36.103Z,61.12
2022-08-07T01:18:17.026Z,61.14
2022-08-07T01:20:57.533Z,61.78
2022-08-07T01:23:35.471Z,61.38
2022-08-07T01:26:12.148Z,61.80
2022-08-07T01:28:46.293Z,62.22
2022-08-07T01:31:21.827Z,62.07
2022-08-07T01:33:55.383Z,62.19
2022-08-07T01:36:33.448Z,61.93
2022-08-07T01:39:10.015Z,61.69
2022-08-07T01:42:07.623Z,61.86
2022-08-07T01:44:32.600Z,62.13
2022-08-07T01:48:16.876Z,62.01
2022-08-07T01:49:54.661Z,62.11
2022-08-07T01:52:27.155Z,62.30
2022-08-07T01:54:58.903Z,62.51
2022-08-07T01:58:01.579Z,62.57
2022-08-07T02:00:28.676Z,62.57
2022-08-07T02:03:11.929Z,63.15
2022-08-07T02:05:59.605Z,62.81
2022-08-07T02:08:31.668Z,62.46
2022-08-07T02:11:03.727Z,62.51
2022-08-07T02:13:57.393Z,62.18
2022-08-07T02:16:28.594Z,63.18
2022-08-07T02:19:05.306Z,62.72
2022-08-07T02:21:55.402Z,63.05
2022-08-07T02:24:24.615Z,63.82
2022-08-07T02:26:54.673Z,63.21
2022-08-07T02:29:22.904Z,62.46
2022-08-07T02:31:54.693Z,63.53
2022-08-07T02:34:22.608Z,64.30
2022-08-07T02:36:55.902Z,63.84
2022-08-07T02:39:43.802Z,64.20
2022-08-07T02:42:19.889Z,63.59
2022-08-07T02:44:53.318Z,63.55
2022-08-07T02:47:24.126Z,63.49
2022-08-07T02:50:04.872Z,63.77
2022-08-07T02:52:40.532Z,64.33
2022-08-07T02:55:28.717Z,65.15
2022-08-07T02:58:12.584Z,64.55
2022-08-07T03:00:46.685Z,63.85
2022-08-07T03:03:22.700Z,64.10
2022-08-07T03:05:54.417Z,64.44
2022-08-07T03:08:27.008Z,64.90
2022-08-07T03:11:01.129Z,65.37
2022-08-07T03:13:39.155Z,65.38
2022-08-07T03:16:18.617Z,65.71
2022-08-07T03:18:53.204Z,65.46
2022-08-07T03:21:23.698Z,65.81
2022-08-07T03:24:17.989Z,64.52
2022-08-07T03:26:54.620Z,64.29
2022-08-07T03:29:30.744Z,64.43
2022-08-07T03:32:04.037Z,64.18
2022-08-07T03:34:39.448Z,64.72
2022-08-07T03:37:17.785Z,64.87
2022-08-07T03:40:15.063Z,65.44
2022-08-07T03:42:38.967Z,64.67
2022-08-07T03:45:12.130Z,64.88
2022-08-07T03:48:02.654Z,64.55
2022-08-07T03:50:32.576Z,65.52
2022-08-07T03:53:04.213Z,65.76
2022-08-07T03:55:53.328Z,65.09
2022-08-07T03:59:07.334Z,65.09
2022-08-07T04:01:15.563Z,65.65
2022-08-07T04:03:53.255Z,66.08
2022-08-07T04:06:37.364Z,66.27
2022-08-07T04:09:15.390Z,66.61
2022-08-07T04:12:23.396Z,66.49
2022-08-07T04:14:43.528Z,67.62
2022-08-07T04:18:31.274Z,67.69
2022-08-07T04:20:06.127Z,67.44
2022-08-07T04:22:38.188Z,67.98
2022-08-07T04:25:08.705Z,67.20
2022-08-07T04:27:44.165Z,67.09
2022-08-07T04:30:21.369Z,67.76
2022-08-07T04:33:15.425Z,67.44
2022-08-07T04:35:50.178Z,67.42
2022-08-07T04:38:20.511Z,67.76
2022-08-07T04:40:52.970Z,68.47
2022-08-07T04:44:10.392Z,67.78
2022-08-07T04:46:34.858Z,68.26
2022-08-07T04:49:17.585Z,68.44
2022-08-07T04:51:55.991Z,68.72
2022-08-07T04:54:32.118Z,69.10
2022-08-07T04:58:16.966Z,69.41
2022-08-07T05:00:12.490Z,69.67
2022-08-07T05:02:56.957Z,68.78
2022-08-07T05:05:53.947Z,69.03
2022-08-07T05:08:59.199Z,69.96
2022-08-07T05:11:19.210Z,71.05
2022-08-07T05:14:54.218Z,70.82
2022-08-07T05:16:47.490Z,71.53
2022-08-07T05:19:32.643Z,70.82
2022-08-07T05:22:05.595Z,70.33
2022-08-07T05:24:40.841Z,70.31
2022-08-07T05:27:14.509Z,70.30
2022-08-07T05:30:04.781Z,67.84
2022-08-07T05:32:33.912Z,68.63
2022-08-07T05:35:04.156Z,68.54
2022-08-07T05:37:40.876Z,66.72
2022-08-07T05:40:18.234Z,66.46
2022-08-07T05:42:56.037Z,66.93
2022-08-07T05:45:47.739Z,65.82
2022-08-07T05:48:16.602Z,66.04
2022-08-07T05:50:47.432Z,65.13
2022-08-07T05:54:09.581Z,64.10
2022-08-07T05:56:12.370Z,65.34
2022-08-07T05:58:49.160Z,66.23
2022-08-07T06:01:24.663Z,65.93
2022-08-07T06:04:00.881Z,66.52
2022-08-07T06:06:37.242Z,67.88
2022-08-07T06:09:10.952Z,66.38
2022-08-07T06:11:45.316Z,65.61
2022-08-07T06:14:21.330Z,65.79
2022-08-07T06:16:59.513Z,63.51
2022-08-07T06:19:52.334Z,63.62
2022-08-07T06:22:27.251Z,62.28
2022-08-07T06:25:12.498Z,64.76
2022-08-07T06:27:44.361Z,64.60
2022-08-07T06:30:35.290Z,64.92
2022-08-07T06:33:09.922Z,66.11
2022-08-07T06:35:47.662Z,66.00
2022-08-07T06:38:33.219Z,63.87
2022-08-07T06:41:09.725Z,62.44
2022-08-07T06:43:46.674Z,63.51
2022-08-07T06:46:35.364Z,64.33
2022-08-07T06:49:05.166Z,64.65
2022-08-07T06:51:49.557Z,66.04
2022-08-07T06:55:31.842Z,62.50
2022-08-07T06:57:13.493Z,62.21
2022-08-07T07:00:13.503Z,61.31
2022-08-07T07:02:48.905Z,61.43
2022-08-07T07:06:03.163Z,61.75
2022-08-07T07:08:18.457Z,62.39
2022-08-07T07:10:56.944Z,61.82
2022-08-07T07:13:55.508Z,60.22
2022-08-07T07:16:30.499Z,60.39
2022-08-07T07:19:40.914Z,60.86
2022-08-07T07:22:04.939Z,59.41
2022-08-07T07:24:43.202Z,57.77
2022-08-07T07:27:35.684Z,60.43
2022-08-07T07:30:32.374Z,61.64
2022-08-07T07:33:07.775Z,60.56
2022-08-07T07:35:51.860Z,59.37
2022-08-07T07:38:26.007Z,58.57
2022-08-07T07:41:01.906Z,57.70
2022-08-07T07:44:14.244Z,57.34
2022-08-07T07:46:40.289Z,56.60
2022-08-07T07:50:35.274Z,56.16
2022-08-07T07:52:06.043Z,56.14
2022-08-07T07:54:36.796Z,55.51
2022-08-07T07:57:06.433Z,54.40
2022-08-07T07:59:52.799Z,55.58
2022-08-07T08:02:35.244Z,54.56
2022-08-07T08:05:11.428Z,54.72
2022-08-07T08:07:51.594Z,53.90
2022-08-07T08:10:38.157Z,54.10
2022-08-07T08:13:10.334Z,53.52
2022-08-07T08:15:57.966Z,52.73
2022-08-07T08:18:30.499Z,52.89
2022-08-07T08:21:01.249Z,53.39
2022-08-07T08:23:47.501Z,51.42
2022-08-07T08:26:32.006Z,52.40
2022-08-07T08:29:02.209Z,52.61
2022-08-07T08:32:10.225Z,51.76
2022-08-07T08:34:35.976Z,51.99
2022-08-07T08:37:09.772Z,51.69
2022-08-07T08:39:58.661Z,50.72
2022-08-07T08:42:32.938Z,50.15
2022-08-07T08:45:13.201Z,49.98
2022-08-07T08:47:47.333Z,50.23
2022-08-07T08:50:34.899Z,49.10
2022-08-07T08:53:14.388Z,48.49
2022-08-07T08:55:54.848Z,48.72
2022-08-07T08:58:35.048Z,48.60
2022-08-07T09:01:15.928Z,48.60
2022-08-07T09:03:55.253Z,47.41
2022-08-07T09:06:37.482Z,46.96
2022-08-07T09:09:29.823Z,46.14
2022-08-07T09:12:31.312Z,46.77
2022-08-07T09:16:22.757Z,45.80
2022-08-07T09:18:11.457Z,45.82
2022-08-07T09:20:58.157Z,45.66
2022-08-07T09:24:33.627Z,45.07
2022-08-07T09:26:37.141Z,45.02
2022-08-07T09:30:00.909Z,45.77
2022-08-07T09:32:17.212Z,46.86
2022-08-07T09:34:56.035Z,45.69
2022-08-07T09:37:47.709Z,45.09
2022-08-07T09:40:25.562Z,44.27
2022-08-07T09:43:01.500Z,44.40
2022-08-07T09:47:24.222Z,44.01
2022-08-07T09:49:02.623Z,45.13
2022-08-07T09:52:10.659Z,44.82
2022-08-07T09:54:41.261Z,42.63
2022-08-07T09:57:36.763Z,42.58
2022-08-07T10:00:14.422Z,42.83
2022-08-07T10:04:03.830Z,43.17
2022-08-07T10:06:29.979Z,43.50
2022-08-07T10:09:34.169Z,43.15
2022-08-07T10:12:26.412Z,41.74
2022-08-07T10:15:22.998Z,41.46
2022-08-07T10:18:22.102Z,41.94
2022-08-07T10:21:19.794Z,42.83
2022-08-07T10:24:10.164Z,42.17
2022-08-07T10:26:53.516Z,42.25
2022-08-07T10:29:51.747Z,40.44
2022-08-07T10:32:53.568Z,40.04
2022-08-07T10:35:55.783Z,41.60
2022-08-07T10:38:48.636Z,40.76
2022-08-07T10:41:47.508Z,40.75
2022-08-07T10:44:19.395Z,40.68
2022-08-07T10:47:11.825Z,40.21
2022-08-07T10:49:51.206Z,36.99
2022-08-07T10:52:33.601Z,36.20
2022-08-07T10:55:32.650Z,36.81
2022-08-07T10:58:14.554Z,36.13
2022-08-07T11:00:56.292Z,34.82
2022-08-07T11:03:37.898Z,34.91
2022-08-07T11:06:26.802Z,35.13
2022-08-07T11:09:01.342Z,35.24
2022-08-07T11:11:35.683Z,34.45
2022-08-07T11:14:46.242Z,33.50
2022-08-07T11:17:02.353Z,33.54
2022-08-07T11:19:41.174Z,33.87
2022-08-07T11:22:26.500Z,33.22
2022-08-07T11:25:07.451Z,33.02
2022-08-07T11:28:03.222Z,32.66
2022-08-07T11:30:46.702Z,32.24
2022-08-07T11:33:58.714Z,33.20
2022-08-07T11:36:32.416Z,32.21
2022-08-07T11:39:14.481Z,32.37
2022-08-07T11:42:02.259Z,32.03
2022-08-07T11:44:58.023Z,31.19
2022-08-07T11:47:55.940Z,30.78
2022-08-07T11:50:44.606Z,31.27
2022-08-07T11:53:43.276Z,30.39
2022-08-07T11:56:43.306Z,30.23
2022-08-07T12:00:12.270Z,30.71
2022-08-07T12:02:53.656Z,30.54
2022-08-07T12:05:47.189Z,30.11
2022-08-07T12:08:31.743Z,28.72
2022-08-07T12:11:21.574Z,29.41
2022-08-07T12:13:56.984Z,29.67
2022-08-07T12:16:30.699Z,28.61
2022-08-07T12:19:14.839Z,28.80
2022-08-07T12:22:39.633Z,28.14
2022-08-07T12:26:00.236Z,27.93
2022-08-07T12:28:09.396Z,29.25
2022-08-07T12:30:46.715Z,28.54
2022-08-07T12:33:28.053Z,27.82
2022-08-07T12:35:58.458Z,28.52
2022-08-07T12:38:42.560Z,27.13
2022-08-07T12:41:12.587Z,27.20
2022-08-07T12:44:04.465Z,27.64
2022-08-07T12:46:46.084Z,27.56
2022-08-07T12:49:39.419Z,27.60
2022-08-07T12:52:17.885Z,27.54
2022-08-07T12:55:01.518Z,26.85
2022-08-07T12:58:40.419Z,25.91
2022-08-07T13:01:28.214Z,26.80
2022-08-07T13:04:31.838Z,27.71
2022-08-07T13:08:14.391Z,25.89
2022-08-07T13:10:39.470Z,26.82
2022-08-07T13:13:46.995Z,27.42
2022-08-07T13:16:27.619Z,27.92
2022-08-07T13:19:21.638Z,27.15
2022-08-07T13:22:19.432Z,27.80
2022-08-07T13:25:00.192Z,27.85
2022-08-07T13:28:12.413Z,27.67
2022-08-07T13:30:39.895Z,27.96
2022-08-07T13:34:31.620Z,29.14
2022-08-07T13:36:17.687Z,29.14
2022-08-07T13:38:54.557Z,28.64
2022-08-07T13:41:30.191Z,28.84
2022-08-07T13:44:02.725Z,28.57
2022-08-07T13:46:49.614Z,29.34
2022-08-07T13:50:34.581Z,28.62
2022-08-07T13:52:30.749Z,28.05
2022-08-07T13:55:00.741Z,28.47
2022-08-07T13:57:38.020Z,29.28
2022-08-07T14:00:13.357Z,28.93
2022-08-07T14:02:58.864Z,29.23
2022-08-07T14:05:37.373Z,29.51
2022-08-07T14:08:09.064Z,29.32
2022-08-07T14:10:42.338Z,29.55
2022-08-07T14:13:17.958Z,29.78
2022-08-07T14:15:54.324Z,30.04
2022-08-07T14:18:33.200Z,29.02
2022-08-07T14:21:20.698Z,29.53
2022-08-07T14:24:00.023Z,29.45
2022-08-07T14:26:36.351Z,29.21
2022-08-07T14:30:03.045Z,29.92
2022-08-07T14:31:58.054Z,29.06
2022-08-07T14:34:30.280Z,29.01
2022-08-07T14:37:01.960Z,30.00
2022-08-07T14:40:17.071Z,30.28
2022-08-07T14:42:25.970Z,29.41
2022-08-07T14:44:59.808Z,29.53
2022-08-07T14:50:23.748Z,29.46
2022-08-07T14:52:55.427Z,29.71
2022-08-07T14:55:28.697Z,29.83
2022-08-07T14:58:01.087Z,29.92
2022-08-07T15:00:34.881Z,30.08
2022-08-07T15:06:04.270Z,29.73
2022-08-07T15:08:47.625Z,29.78
2022-08-07T15:11:53.999Z,29.63
2022-08-07T15:14:17.523Z,29.83
2022-08-07T15:16:55.002Z,29.84
2022-08-07T15:20:31.082Z,29.00
2022-08-07T15:22:29.195Z,28.90
2022-08-07T15:28:30.822Z,29.38
2022-08-07T15:37:02.747Z,30.50
2022-08-07T15:39:17.623Z,30.38
2022-08-07T15:42:46.003Z,30.13
2022-08-07T15:44:52.709Z,30.47
2022-08-07T15:48:00.749Z,30.44
2022-08-07T15:50:37.754Z,30.83
2022-08-07T15:53:11.604Z,30.43
2022-08-07T15:55:53.873Z,30.59
2022-08-07T15:58:38.238Z,30.38
2022-08-07T16:01:08.406Z,30.38
2022-08-07T16:03:47.271Z,30.77
2022-08-07T16:06:30.841Z,31.09
2022-08-07T16:09:07.769Z,30.20
2022-08-07T16:11:55.795Z,30.42
2022-08-07T16:14:44.910Z,30.53
2022-08-07T16:18:02.337Z,30.32
2022-08-07T16:20:38.760Z,29.84
2022-08-07T16:23:54.646Z,30.28
2022-08-07T16:26:31.291Z,30.92
2022-08-07T16:29:18.774Z,31.27
2022-08-07T16:32:04.922Z,31.46
2022-08-07T16:34:45.491Z,31.20
2022-08-07T16:38:05.786Z,31.12
2022-08-07T16:41:02.205Z,31.06
2022-08-07T16:44:05.973Z,31.55
2022-08-07T16:47:06.747Z,30.74
2022-08-07T16:50:20.741Z,30.06
2022-08-07T16:54:01.693Z,31.44
2022-08-07T16:56:08.868Z,30.87
2022-08-07T16:59:14.805Z,31.02
2022-08-07T17:01:57.244Z,31.17
2022-08-07T17:04:37.026Z,30.79
2022-08-07T17:07:28.542Z,30.86
2022-08-07T17:10:32.654Z,31.04
2022-08-07T17:13:08.556Z,30.45
2022-08-07T17:15:44.768Z,31.20
2022-08-07T17:18:29.259Z,31.60
2022-08-07T17:20:57.361Z,31.83
2022-08-07T17:23:41.263Z,31.91
2022-08-07T17:26:23.700Z,31.71
2022-08-07T17:30:13.037Z,31.73
2022-08-07T17:32:09.489Z,31.22
2022-08-07T17:35:51.368Z,31.06
2022-08-07T17:38:09.612Z,32.03
2022-08-07T17:42:02.490Z,31.44
2022-08-07T17:44:02.877Z,31.17
2022-08-07T17:46:40.903Z,31.63
2022-08-07T17:49:22.983Z,32.66
2022-08-07T17:52:00.535Z,32.81
2022-08-07T17:54:52.961Z,31.87
2022-08-07T17:57:56.345Z,32.89
2022-08-07T18:00:32.931Z,32.67
2022-08-07T18:03:09.444Z,33.03
2022-08-07T18:06:01.716Z,32.68
2022-08-07T18:08:33.767Z,33.32
2022-08-07T18:12:07.645Z,33.33
2022-08-07T18:14:05.707Z,33.53
2022-08-07T18:16:57.891Z,33.36
2022-08-07T18:21:08.598Z,33.83
2022-08-07T18:22:31.752Z,33.49
2022-08-07T18:25:24.131Z,34.39
2022-08-07T18:28:33.894Z,34.67
2022-08-07T18:31:07.525Z,34.65
2022-08-07T18:33:58.254Z,35.02
2022-08-07T18:36:40.834Z,34.86
2022-08-07T18:40:06.308Z,35.50
2022-08-07T18:42:17.278Z,34.98
2022-08-07T18:45:44.277Z,35.54
2022-08-07T18:48:00.945Z,35.82
2022-08-07T18:50:49.150Z,35.58
2022-08-07T18:53:36.512Z,35.59
2022-08-07T18:56:14.993Z,36.10
2022-08-07T18:59:00.805Z,36.35
2022-08-07T19:02:20.105Z,36.88
2022-08-07T19:04:54.648Z,37.41
2022-08-07T19:07:34.372Z,37.80
2022-08-07T19:10:10.937Z,38.16
2022-08-07T19:12:57.808Z,38.44
2022-08-07T19:16:03.407Z,38.80
2022-08-07T19:18:36.404Z,39.55
2022-08-07T19:21:44.336Z,39.49
2022-08-07T19:24:30.552Z,39.71
2022-08-07T19:28:38.251Z,40.01
2022-08-07T19:31:05.119Z,39.74
2022-08-07T19:32:46.678Z,40.19
2022-08-07T19:35:19.562Z,40.42
2022-08-07T19:37:58.155Z,40.79
2022-08-07T19:40:31.654Z,40.40
2022-08-07T19:43:08.317Z,41.09
2022-08-07T19:46:07.499Z,40.59
2022-08-07T19:48:42.634Z,40.82
2022-08-07T19:51:19.444Z,41.33
2022-08-07T19:54:34.578Z,41.28
2022-08-07T19:58:02.409Z,41.05
2022-08-07T19:59:40.897Z,40.96
2022-08-07T20:02:19.279Z,41.54
2022-08-07T20:04:52.037Z,41.49
2022-08-07T20:07:47.762Z,41.37
2022-08-07T20:10:38.176Z,41.84
2022-08-07T20:13:15.817Z,42.12
2022-08-07T20:15:52.094Z,41.95
2022-08-07T20:18:32.483Z,42.30
2022-08-07T20:21:21.455Z,42.32
2022-08-07T20:23:54.939Z,42.57
2022-08-07T20:26:38.532Z,42.84
2022-08-07T20:29:46.701Z,42.66
2022-08-07T20:31:58.518Z,43.06
2022-08-07T20:34:49.277Z,43.37
2022-08-07T20:37:23.356Z,43.38
2022-08-07T20:40:02.615Z,43.65
2022-08-07T20:42:38.410Z,43.30
2022-08-07T20:46:24.985Z,43.11
2022-08-07T20:48:02.119Z,43.50
2022-08-07T20:50:31.886Z,43.94
2022-08-07T20:53:00.359Z,44.00
2022-08-07T20:55:32.279Z,43.84
2022-08-07T20:58:08.994Z,44.23
2022-08-07T21:00:45.957Z,43.96
2022-08-07T21:03:19.197Z,44.18
2022-08-07T21:05:57.820Z,44.42
2022-08-07T21:08:36.769Z,44.62
2022-08-07T21:11:10.471Z,44.56
2022-08-07T21:14:20.305Z,44.61
2022-08-07T21:16:56.203Z,44.98
2022-08-07T21:19:32.490Z,45.27
2022-08-07T21:22:19.314Z,45.14
2022-08-07T21:24:56.774Z,45.36
2022-08-07T21:27:39.799Z,45.81
2022-08-07T21:30:12.358Z,45.90
2022-08-07T21:33:01.448Z,45.97
2022-08-07T21:36:05.301Z,46.18
2022-08-07T21:38:29.659Z,46.90
2022-08-07T21:41:06.944Z,46.58
2022-08-07T21:43:56.542Z,46.52
2022-08-07T21:46:36.283Z,46.96
2022-08-07T21:49:14.472Z,47.54
2022-08-07T21:51:59.447Z,47.54
2022-08-07T21:54:46.200Z,48.28
2022-08-07T21:57:39.852Z,48.47
2022-08-07T22:00:22.592Z,48.74
2022-08-07T22:03:00.004Z,49.16
2022-08-07T22:05:46.257Z,49.05
2022-08-07T22:08:19.788Z,49.13
2022-08-07T22:10:50.768Z,49.78
2022-08-07T22:13:24.560Z,49.45
2022-08-07T22:16:43.092Z,49.99
2022-08-07T22:19:08.166Z,49.62
2022-08-07T22:22:02.126Z,49.72
2022-08-07T22:24:35.323Z,49.91
2022-08-07T22:27:11.864Z,49.32
2022-08-07T22:29:48.372Z,49.04
2022-08-07T22:32:25.436Z,48.65
2022-08-07T22:34:57.222Z,49.25
2022-08-07T22:38:04.571Z,49.71
2022-08-07T22:40:30.728Z,49.52
2022-08-07T22:43:04.070Z,49.33
2022-08-07T22:46:40.793Z,50.79
2022-08-07T22:48:55.247Z,50.51
2022-08-07T22:51:51.839Z,50.46
2022-08-07T22:54:48.978Z,51.04
2022-08-07T22:57:41.573Z,51.58
2022-08-07T23:00:18.931Z,51.10
2022-08-07T23:03:09.339Z,51.83
2022-08-07T23:06:08.220Z,51.89
2022-08-07T23:08:58.559Z,52.57
2022-08-07T23:12:01.600Z,52.54
2022-08-07T23:14:47.466Z,52.59
2022-08-07T23:17:45.190Z,53.23
2022-08-07T23:20:52.827Z,52.69
2022-08-07T23:24:11.659Z,52.52
2022-08-07T23:26:57.120Z,52.54
2022-08-07T23:30:37.308Z,52.60
2022-08-07T23:34:35.327Z,53.08
2022-08-07T23:35:55.622Z,53.77
2022-08-07T23:38:36.606Z,52.85
2022-08-07T23:41:33.271Z,52.79
2022-08-07T23:44:29.571Z,53.34
2022-08-07T23:47:16.206Z,53.79
2022-08-07T23:49:59.900Z,54.15
2022-08-07T23:53:00.300Z,53.65
2022-08-07T23:55:53.069Z,53.51
2022-08-07T23:58:26.665Z,53.42
